createdAt,value
2023-03-31T00:01:19.116Z,80
2023-03-31T00:04:19.242Z,80
2023-03-31T00:07:19.121Z,80
2023-03-31T00:10:19.131Z,80
2023-03-31T00:13:19.206Z,80
2023-03-31T00:16:19.342Z,80
2023-03-31T00:19:19.132Z,80
2023-03-31T00:22:19.118Z,80
2023-03-31T00:25:19.145Z,80
2023-03-31T00:28:19.140Z,80
2023-03-31T00:31:19.151Z,80
2023-03-31T00:34:19.129Z,80
2023-03-31T00:40:19.131Z,81
2023-03-31T00:43:19.133Z,81
2023-03-31T00:46:19.208Z,81
2023-03-31T00:49:19.104Z,81
2023-03-31T00:52:19.103Z,81
2023-03-31T00:55:19.130Z,81
2023-03-31T00:58:19.099Z,81
2023-03-31T01:01:19.143Z,81
2023-03-31T01:04:19.101Z,81
2023-03-31T01:07:19.092Z,81
2023-03-31T01:10:19.110Z,81
2023-03-31T01:13:19.098Z,82
2023-03-31T01:16:19.157Z,82
2023-03-31T01:19:19.098Z,82
2023-03-31T01:22:19.099Z,82
2023-03-31T01:25:19.120Z,82
2023-03-31T01:28:19.116Z,82
2023-03-31T01:31:19.174Z,82
2023-03-31T01:34:19.091Z,82
2023-03-31T01:37:19.109Z,82
2023-03-31T01:40:19.090Z,82
2023-03-31T01:43:19.110Z,82
2023-03-31T01:46:19.122Z,82
2023-03-31T01:49:19.085Z,83
2023-03-31T01:52:19.145Z,83
2023-03-31T01:55:19.101Z,83
2023-03-31T01:58:19.081Z,83
2023-03-31T02:01:19.103Z,83
2023-03-31T02:04:19.086Z,83
2023-03-31T02:07:19.076Z,83
2023-03-31T02:10:19.073Z,83
2023-03-31T02:13:19.105Z,83
2023-03-31T02:16:19.195Z,83
2023-03-31T02:19:19.069Z,83
2023-03-31T02:22:19.094Z,83
2023-03-31T02:25:19.076Z,83
2023-03-31T02:28:19.060Z,83
2023-03-31T02:31:19.082Z,83
2023-03-31T02:34:19.060Z,83
2023-03-31T02:37:19.062Z,83
2023-03-31T02:40:19.091Z,83
2023-03-31T02:43:19.063Z,83
2023-03-31T02:46:19.102Z,83
2023-03-31T02:49:19.076Z,83
2023-03-31T02:52:19.072Z,83
2023-03-31T02:55:19.067Z,83
2023-03-31T02:58:19.042Z,83
2023-03-31T03:01:19.104Z,83
2023-03-31T03:04:19.067Z,84
2023-03-31T03:07:19.041Z,84
2023-03-31T03:10:19.055Z,84
2023-03-31T03:13:19.053Z,84
2023-03-31T03:16:19.150Z,84
2023-03-31T03:19:19.069Z,84
2023-03-31T03:22:19.056Z,84
2023-03-31T03:25:19.066Z,84
2023-03-31T03:28:19.092Z,84
2023-03-31T03:31:19.091Z,84
2023-03-31T03:34:19.067Z,84
2023-03-31T03:37:19.066Z,84
2023-03-31T03:40:19.065Z,84
2023-03-31T03:43:19.047Z,84
2023-03-31T03:46:19.072Z,84
2023-03-31T03:49:19.067Z,84
2023-03-31T03:52:19.068Z,84
2023-03-31T03:55:19.083Z,84
2023-03-31T03:58:19.046Z,84
2023-03-31T04:01:19.033Z,84
2023-03-31T04:04:19.040Z,84
2023-03-31T04:07:19.049Z,84
2023-03-31T04:10:19.054Z,84
2023-03-31T04:13:19.041Z,84
2023-03-31T04:16:19.033Z,84
2023-03-31T04:19:19.044Z,84
2023-03-31T04:22:19.031Z,84
2023-03-31T04:25:19.021Z,84
2023-03-31T04:28:19.016Z,84
2023-03-31T04:31:19.019Z,84
2023-03-31T04:34:19.028Z,84
2023-03-31T04:37:19.016Z,84
2023-03-31T04:40:19.039Z,84
2023-03-31T04:43:19.110Z,84
2023-03-31T04:46:19.022Z,84
2023-03-31T04:49:19.010Z,84
2023-03-31T04:55:19.028Z,84
2023-03-31T04:58:19.007Z,84
2023-03-31T05:01:19.024Z,84
2023-03-31T05:04:19.007Z,84
2023-03-31T05:07:19.005Z,84
2023-03-31T05:10:19.003Z,84
2023-03-31T05:13:19.065Z,84
2023-03-31T05:19:19.034Z,84
2023-03-31T05:22:19.004Z,84
2023-03-31T05:25:19.032Z,84
2023-03-31T05:28:19.007Z,84
2023-03-31T05:31:19.021Z,84
2023-03-31T05:34:18.998Z,84
2023-03-31T05:37:19.029Z,84
2023-03-31T05:40:19.014Z,84
2023-03-31T05:43:19.004Z,84
2023-03-31T05:46:19.021Z,85
2023-03-31T05:49:19.009Z,85
2023-03-31T05:52:19.006Z,85
2023-03-31T05:55:18.999Z,85
2023-03-31T05:58:19.008Z,85
2023-03-31T06:01:19.038Z,85
2023-03-31T06:04:19.038Z,85
2023-03-31T06:07:18.995Z,85
2023-03-31T06:10:19.008Z,85
2023-03-31T06:13:19.008Z,85
2023-03-31T06:16:19.062Z,85
2023-03-31T06:19:19.195Z,85
2023-03-31T06:22:18.993Z,85
2023-03-31T06:25:18.991Z,85
2023-03-31T06:28:19.004Z,85
2023-03-31T06:31:19.021Z,85
2023-03-31T06:34:20.821Z,85
2023-03-31T06:37:19.007Z,85
2023-03-31T06:40:18.992Z,85
2023-03-31T06:43:18.989Z,85
2023-03-31T06:46:18.989Z,85
2023-03-31T06:49:18.981Z,85
2023-03-31T06:52:18.988Z,85
2023-03-31T06:55:18.989Z,85
2023-03-31T06:58:18.980Z,85
2023-03-31T07:01:19.039Z,85
2023-03-31T07:04:18.985Z,85
2023-03-31T07:07:18.997Z,85
2023-03-31T07:10:18.975Z,85
2023-03-31T07:13:18.978Z,85
2023-03-31T07:16:18.987Z,86
2023-03-31T07:19:18.979Z,86
2023-03-31T07:22:18.977Z,86
2023-03-31T07:25:18.973Z,86
2023-03-31T07:28:18.982Z,86
2023-03-31T07:31:18.978Z,86
2023-03-31T07:34:18.968Z,86
2023-03-31T07:37:18.984Z,86
2023-03-31T07:40:18.973Z,86
2023-03-31T07:43:18.968Z,86
2023-03-31T07:46:19.020Z,86
2023-03-31T07:49:18.977Z,86
2023-03-31T07:52:18.983Z,86
2023-03-31T07:55:18.977Z,86
2023-03-31T07:58:18.972Z,86
2023-03-31T08:01:18.962Z,86
2023-03-31T08:04:19.028Z,86
2023-03-31T08:07:18.959Z,86
2023-03-31T08:10:18.978Z,86
2023-03-31T08:13:18.982Z,86
2023-03-31T08:16:18.991Z,86
2023-03-31T08:19:19.107Z,86
2023-03-31T08:22:18.976Z,86
2023-03-31T08:25:18.962Z,86
2023-03-31T08:28:18.970Z,86
2023-03-31T08:31:19.006Z,86
2023-03-31T08:34:18.956Z,86
2023-03-31T08:37:18.956Z,86
2023-03-31T08:40:18.985Z,86
2023-03-31T08:43:18.979Z,86
2023-03-31T08:46:18.964Z,86
2023-03-31T08:49:18.981Z,86
2023-03-31T08:52:18.967Z,86
2023-03-31T08:55:18.951Z,86
2023-03-31T08:58:18.949Z,86
2023-03-31T09:01:18.962Z,86
2023-03-31T09:04:19.103Z,85
2023-03-31T09:07:18.959Z,85
2023-03-31T09:10:18.962Z,85
2023-03-31T09:13:18.984Z,85
2023-03-31T09:16:18.999Z,85
2023-03-31T09:19:18.967Z,85
2023-03-31T09:22:18.949Z,86
2023-03-31T09:28:18.956Z,86
2023-03-31T09:31:18.981Z,86
2023-03-31T09:34:18.958Z,85
2023-03-31T09:37:18.957Z,85
2023-03-31T09:40:19.021Z,85
2023-03-31T09:43:18.957Z,85
2023-03-31T09:46:19.104Z,85
2023-03-31T09:49:18.971Z,85
2023-03-31T09:52:18.966Z,85
2023-03-31T09:55:28.717Z,85
2023-03-31T09:58:18.940Z,85
2023-03-31T10:01:18.955Z,85
2023-03-31T10:04:19.044Z,85
2023-03-31T10:07:18.947Z,85
2023-03-31T10:10:18.969Z,84
2023-03-31T10:13:18.934Z,84
2023-03-31T10:16:18.942Z,84
2023-03-31T10:19:18.932Z,84
2023-03-31T10:22:18.932Z,84
2023-03-31T10:25:18.951Z,84
2023-03-31T10:28:18.927Z,83
2023-03-31T10:31:18.932Z,83
2023-03-31T10:34:18.936Z,83
2023-03-31T10:37:18.918Z,83
2023-03-31T10:40:18.936Z,83
2023-03-31T10:43:18.914Z,83
2023-03-31T10:46:18.948Z,82
2023-03-31T10:49:18.935Z,82
2023-03-31T10:52:18.924Z,82
2023-03-31T10:55:18.913Z,82
2023-03-31T11:01:18.956Z,82
2023-03-31T11:04:18.942Z,82
2023-03-31T11:07:18.919Z,82
2023-03-31T11:10:18.914Z,82
2023-03-31T11:13:18.911Z,82
2023-03-31T11:16:19.073Z,83
2023-03-31T11:19:18.908Z,83
2023-03-31T11:22:18.931Z,83
2023-03-31T11:25:18.909Z,83
2023-03-31T11:28:18.906Z,83
2023-03-31T11:31:18.946Z,83
2023-03-31T11:34:18.921Z,83
2023-03-31T11:37:18.897Z,83
2023-03-31T11:40:18.906Z,83
2023-03-31T11:46:18.978Z,83
2023-03-31T11:49:18.907Z,83
2023-03-31T11:52:18.907Z,83
2023-03-31T11:55:18.901Z,82
2023-03-31T11:58:18.900Z,82
2023-03-31T12:01:18.902Z,82
2023-03-31T12:04:18.968Z,82
2023-03-31T12:07:18.905Z,82
2023-03-31T12:10:18.909Z,82
2023-03-31T12:13:18.897Z,82
2023-03-31T12:16:18.920Z,82
2023-03-31T12:19:18.902Z,82
2023-03-31T12:22:18.894Z,82
2023-03-31T12:25:18.898Z,82
2023-03-31T12:28:18.922Z,82
2023-03-31T12:31:18.912Z,82
2023-03-31T12:34:18.918Z,82
2023-03-31T12:37:18.897Z,82
2023-03-31T12:40:18.907Z,82
2023-03-31T12:43:18.916Z,82
2023-03-31T12:46:18.901Z,82
2023-03-31T12:49:18.950Z,82
2023-03-31T12:52:18.918Z,82
2023-03-31T12:55:18.900Z,82
2023-03-31T12:58:18.890Z,82
2023-03-31T13:01:18.913Z,82
2023-03-31T13:04:18.907Z,82
2023-03-31T13:07:28.079Z,82
2023-03-31T13:13:18.893Z,82
2023-03-31T13:16:18.903Z,82
2023-03-31T13:19:18.918Z,82
2023-03-31T13:22:18.888Z,82
2023-03-31T13:25:18.905Z,82
2023-03-31T13:28:18.899Z,82
2023-03-31T13:31:18.907Z,82
2023-03-31T13:34:18.886Z,82
2023-03-31T13:37:18.891Z,82
2023-03-31T13:40:18.880Z,82
2023-03-31T13:43:18.904Z,82
2023-03-31T13:46:18.930Z,82
2023-03-31T13:49:18.874Z,82
2023-03-31T13:52:18.895Z,81
2023-03-31T13:55:18.890Z,81
2023-03-31T14:01:18.888Z,80
2023-03-31T14:04:18.878Z,80
2023-03-31T14:07:18.866Z,80
2023-03-31T14:10:18.879Z,80
2023-03-31T14:13:19.058Z,79
2023-03-31T14:16:18.882Z,79
2023-03-31T14:19:18.893Z,79
2023-03-31T14:22:18.892Z,79
2023-03-31T14:25:18.878Z,79
2023-03-31T14:28:18.902Z,79
2023-03-31T14:31:18.883Z,79
2023-03-31T14:34:18.896Z,78
2023-03-31T14:37:18.861Z,78
2023-03-31T14:40:18.877Z,78
2023-03-31T14:43:18.927Z,78
2023-03-31T14:46:18.897Z,78
2023-03-31T14:49:18.876Z,77
2023-03-31T14:52:18.858Z,77
2023-03-31T14:55:18.864Z,77
2023-03-31T14:58:18.900Z,77
2023-03-31T15:01:19.005Z,77
2023-03-31T15:04:20.276Z,77
2023-03-31T15:07:18.888Z,77
2023-03-31T15:10:18.856Z,77
2023-03-31T15:13:18.871Z,77
2023-03-31T15:16:18.878Z,77
2023-03-31T15:19:18.868Z,77
2023-03-31T15:22:18.867Z,77
2023-03-31T15:25:18.900Z,77
2023-03-31T15:28:18.861Z,77
2023-03-31T15:31:18.898Z,77
2023-03-31T15:34:18.859Z,77
2023-03-31T15:37:20.943Z,77
2023-03-31T15:40:18.866Z,77
2023-03-31T15:46:18.894Z,78
2023-03-31T15:49:18.849Z,78
2023-03-31T15:52:18.835Z,78
2023-03-31T15:55:18.833Z,78
2023-03-31T15:58:18.846Z,78
2023-03-31T16:01:18.884Z,78
2023-03-31T16:04:18.885Z,78
2023-03-31T16:07:18.856Z,78
2023-03-31T16:10:18.867Z,78
2023-03-31T16:13:18.884Z,78
2023-03-31T16:16:18.855Z,78
2023-03-31T16:19:18.836Z,78
2023-03-31T16:22:18.840Z,78
2023-03-31T16:25:18.853Z,78
2023-03-31T16:28:18.847Z,78
2023-03-31T16:31:18.892Z,78
2023-03-31T16:34:18.837Z,78
2023-03-31T16:37:18.833Z,79
2023-03-31T16:40:18.818Z,79
2023-03-31T16:43:18.829Z,79
2023-03-31T16:46:18.833Z,79
2023-03-31T16:49:18.828Z,79
2023-03-31T16:52:18.815Z,79
2023-03-31T16:55:18.841Z,79
2023-03-31T16:58:18.861Z,79
2023-03-31T17:01:18.848Z,79
2023-03-31T17:04:18.824Z,80
2023-03-31T17:07:18.825Z,80
2023-03-31T17:10:18.809Z,80
2023-03-31T17:13:18.807Z,80
2023-03-31T17:19:18.820Z,80
2023-03-31T17:22:18.800Z,80
2023-03-31T17:25:18.798Z,81
2023-03-31T17:28:18.800Z,81
2023-03-31T17:31:18.789Z,81
2023-03-31T17:34:18.789Z,81
2023-03-31T17:37:18.809Z,81
2023-03-31T17:40:18.785Z,81
2023-03-31T17:43:18.789Z,81
2023-03-31T17:46:18.818Z,81
2023-03-31T17:49:18.782Z,81
2023-03-31T17:52:18.782Z,81
2023-03-31T17:55:18.775Z,81
2023-03-31T17:58:18.814Z,82
2023-03-31T18:01:18.788Z,82
2023-03-31T18:04:19.028Z,82
2023-03-31T18:07:18.805Z,82
2023-03-31T18:10:18.788Z,82
2023-03-31T18:13:18.781Z,82
2023-03-31T18:16:18.804Z,82
2023-03-31T18:19:18.788Z,82
2023-03-31T18:22:18.781Z,82
2023-03-31T18:25:18.778Z,82
2023-03-31T18:28:18.763Z,82
2023-03-31T18:31:18.782Z,82
2023-03-31T18:34:18.752Z,82
2023-03-31T18:37:18.772Z,82
2023-03-31T18:40:18.752Z,82
2023-03-31T18:43:18.747Z,82
2023-03-31T18:46:18.795Z,82
2023-03-31T18:49:18.746Z,82
2023-03-31T18:52:18.767Z,82
2023-03-31T18:55:18.746Z,82
2023-03-31T18:58:18.754Z,82
2023-03-31T19:01:18.782Z,82
2023-03-31T19:04:18.749Z,83
2023-03-31T19:07:18.743Z,83
2023-03-31T19:10:18.746Z,83
2023-03-31T19:13:18.781Z,83
2023-03-31T19:16:18.843Z,83
2023-03-31T19:19:18.762Z,83
2023-03-31T19:22:18.771Z,83
2023-03-31T19:25:18.770Z,83
2023-03-31T19:28:18.761Z,83
2023-03-31T19:31:18.751Z,83
2023-03-31T19:34:18.766Z,83
2023-03-31T19:37:18.746Z,83
2023-03-31T19:40:18.739Z,83
2023-03-31T19:43:18.772Z,83
2023-03-31T19:46:18.785Z,83
2023-03-31T19:49:18.765Z,83
2023-03-31T19:52:18.771Z,83
2023-03-31T19:58:18.800Z,83
2023-03-31T20:01:18.771Z,83
2023-03-31T20:04:18.870Z,83
2023-03-31T20:07:18.784Z,83
2023-03-31T20:10:18.785Z,83
2023-03-31T20:13:18.735Z,83
2023-03-31T20:19:18.816Z,83
2023-03-31T20:22:18.771Z,83
2023-03-31T20:25:18.737Z,83
2023-03-31T20:28:18.748Z,82
2023-03-31T20:31:18.805Z,82
2023-03-31T20:34:18.721Z,82
2023-03-31T20:37:18.732Z,82
2023-03-31T20:40:18.719Z,82
2023-03-31T20:43:18.710Z,82
2023-03-31T20:46:18.741Z,82
2023-03-31T20:49:18.724Z,82
2023-03-31T20:52:18.715Z,82
2023-03-31T20:55:18.711Z,82
2023-03-31T20:58:18.714Z,82
2023-03-31T21:01:18.719Z,82
2023-03-31T21:04:18.708Z,81
2023-03-31T21:07:18.708Z,81
2023-03-31T21:13:18.716Z,81
2023-03-31T21:16:18.773Z,81
2023-03-31T21:19:18.709Z,81
2023-03-31T21:22:18.723Z,81
2023-03-31T21:25:18.714Z,81
2023-03-31T21:28:18.753Z,81
2023-03-31T21:31:18.707Z,81
2023-03-31T21:34:18.706Z,81
2023-03-31T21:37:18.723Z,81
2023-03-31T21:40:18.720Z,81
2023-03-31T21:43:18.720Z,81
2023-03-31T21:46:18.830Z,81
2023-03-31T21:49:18.744Z,81
2023-03-31T21:52:18.733Z,81
2023-03-31T21:55:18.712Z,81
2023-03-31T21:58:18.716Z,81
2023-03-31T22:01:18.878Z,81
2023-03-31T22:04:18.761Z,81
2023-03-31T22:07:18.726Z,81
2023-03-31T22:10:18.701Z,81
2023-03-31T22:13:18.746Z,80
2023-03-31T22:16:18.744Z,80
2023-03-31T22:19:18.709Z,80
2023-03-31T22:22:18.709Z,80
2023-03-31T22:25:18.716Z,80
2023-03-31T22:28:18.752Z,80
2023-03-31T22:31:18.779Z,80
2023-03-31T22:34:18.702Z,80
2023-03-31T22:37:18.693Z,80
2023-03-31T22:40:18.698Z,80
2023-03-31T22:43:18.693Z,80
2023-03-31T22:46:18.713Z,80
2023-03-31T22:49:18.684Z,80
2023-03-31T22:52:18.702Z,80
2023-03-31T22:55:18.747Z,80
2023-03-31T22:58:18.713Z,80
2023-03-31T23:01:18.761Z,80
2023-03-31T23:04:18.713Z,80
2023-03-31T23:07:18.692Z,80
2023-03-31T23:10:18.711Z,80
2023-03-31T23:13:18.707Z,80
2023-03-31T23:16:18.751Z,80
2023-03-31T23:19:18.689Z,80
2023-03-31T23:22:18.704Z,80
2023-03-31T23:25:18.693Z,80
2023-03-31T23:28:18.738Z,80
2023-03-31T23:31:18.701Z,80
2023-03-31T23:34:18.698Z,80
2023-03-31T23:37:18.708Z,80
2023-03-31T23:40:18.687Z,80
2023-03-31T23:43:18.714Z,80
2023-03-31T23:46:18.747Z,80
2023-03-31T23:49:18.684Z,80
2023-03-31T23:52:18.698Z,80
2023-03-31T23:55:18.733Z,80
2023-03-31T23:58:18.721Z,80
